sensor_id;sensor_type;location;lat;lon;timestamp;P1;durP1;ratioP1;P2;durP2;ratioP2
15946;SDS011;8072;52.554;7.966;2023-02-19T00:01:09;33.23;;;16.50;;
15946;SDS011;8072;52.554;7.966;2023-02-19T00:03:39;35.13;;;16.90;;
15946;SDS011;8072;52.554;7.966;2023-02-19T00:06:06;34.93;;;15.97;;
15946;SDS011;8072;52.554;7.966;2023-02-19T00:08:34;32.40;;;15.77;;
15946;SDS011;8072;52.554;7.966;2023-02-19T00:11:05;32.77;;;15.30;;
15946;SDS011;8072;52.554;7.966;2023-02-19T00:13:36;28.90;;;14.73;;
15946;SDS011;8072;52.554;7.966;2023-02-19T00:16:11;30.80;;;14.37;;
15946;SDS011;8072;52.554;7.966;2023-02-19T00:18:37;28.77;;;14.57;;
15946;SDS011;8072;52.554;7.966;2023-02-19T00:21:02;28.90;;;14.03;;
15946;SDS011;8072;52.554;7.966;2023-02-19T00:23:29;27.73;;;13.57;;
15946;SDS011;8072;52.554;7.966;2023-02-19T00:25:55;21.80;;;12.40;;
15946;SDS011;8072;52.554;7.966;2023-02-19T00:28:21;25.40;;;12.53;;
15946;SDS011;8072;52.554;7.966;2023-02-19T00:30:47;20.77;;;11.37;;
15946;SDS011;8072;52.554;7.966;2023-02-19T00:33:13;23.93;;;12.10;;
15946;SDS011;8072;52.554;7.966;2023-02-19T00:35:39;18.87;;;10.47;;
15946;SDS011;8072;52.554;7.966;2023-02-19T00:38:05;18.57;;;9.73;;
15946;SDS011;8072;52.554;7.966;2023-02-19T00:40:31;18.33;;;9.40;;
15946;SDS011;8072;52.554;7.966;2023-02-19T00:42:56;18.33;;;9.63;;
15946;SDS011;8072;52.554;7.966;2023-02-19T00:45:22;20.50;;;9.97;;
15946;SDS011;8072;52.554;7.966;2023-02-19T00:47:48;19.63;;;10.57;;
15946;SDS011;8072;52.554;7.966;2023-02-19T00:50:14;20.23;;;10.40;;
15946;SDS011;8072;52.554;7.966;2023-02-19T00:52:40;24.07;;;12.50;;
15946;SDS011;8072;52.554;7.966;2023-02-19T00:55:05;23.63;;;12.50;;
15946;SDS011;8072;52.554;7.966;2023-02-19T00:57:31;27.60;;;12.77;;
15946;SDS011;8072;52.554;7.966;2023-02-19T00:59:57;23.33;;;12.17;;
15946;SDS011;8072;52.554;7.966;2023-02-19T01:02:22;21.20;;;12.07;;
15946;SDS011;8072;52.554;7.966;2023-02-19T01:04:48;21.80;;;12.10;;
15946;SDS011;8072;52.554;7.966;2023-02-19T01:07:14;22.80;;;12.63;;
15946;SDS011;8072;52.554;7.966;2023-02-19T01:09:40;26.47;;;14.30;;
15946;SDS011;8072;52.554;7.966;2023-02-19T01:12:05;27.57;;;13.30;;
15946;SDS011;8072;52.554;7.966;2023-02-19T01:14:32;25.27;;;12.70;;
15946;SDS011;8072;52.554;7.966;2023-02-19T01:16:58;24.10;;;12.77;;
15946;SDS011;8072;52.554;7.966;2023-02-19T01:19:24;27.37;;;13.93;;
15946;SDS011;8072;52.554;7.966;2023-02-19T01:21:50;26.07;;;13.27;;
15946;SDS011;8072;52.554;7.966;2023-02-19T01:24:15;22.37;;;12.20;;
15946;SDS011;8072;52.554;7.966;2023-02-19T01:26:41;23.13;;;11.90;;
15946;SDS011;8072;52.554;7.966;2023-02-19T01:29:07;21.80;;;11.87;;
15946;SDS011;8072;52.554;7.966;2023-02-19T01:31:33;21.30;;;10.40;;
15946;SDS011;8072;52.554;7.966;2023-02-19T01:34:01;20.20;;;9.73;;
15946;SDS011;8072;52.554;7.966;2023-02-19T01:36:28;16.67;;;9.70;;
15946;SDS011;8072;52.554;7.966;2023-02-19T01:38:58;16.43;;;9.47;;
15946;SDS011;8072;52.554;7.966;2023-02-19T01:41:25;15.17;;;9.10;;
15946;SDS011;8072;52.554;7.966;2023-02-19T01:46:26;18.03;;;10.40;;
15946;SDS011;8072;52.554;7.966;2023-02-19T01:49:13;19.70;;;9.30;;
15946;SDS011;8072;52.554;7.966;2023-02-19T01:51:45;19.40;;;9.60;;
15946;SDS011;8072;52.554;7.966;2023-02-19T01:54:15;17.00;;;9.07;;
15946;SDS011;8072;52.554;7.966;2023-02-19T01:56:44;19.13;;;9.17;;
15946;SDS011;8072;52.554;7.966;2023-02-19T01:59:12;18.40;;;9.50;;
15946;SDS011;8072;52.554;7.966;2023-02-19T02:01:38;17.27;;;9.70;;
15946;SDS011;8072;52.554;7.966;2023-02-19T02:04:05;19.77;;;10.60;;
15946;SDS011;8072;52.554;7.966;2023-02-19T02:06:48;21.07;;;10.57;;
15946;SDS011;8072;52.554;7.966;2023-02-19T02:09:19;22.00;;;10.90;;
15946;SDS011;8072;52.554;7.966;2023-02-19T02:12:06;20.77;;;11.73;;
15946;SDS011;8072;52.554;7.966;2023-02-19T02:14:33;21.77;;;11.53;;
15946;SDS011;8072;52.554;7.966;2023-02-19T02:17:08;23.23;;;11.43;;
15946;SDS011;8072;52.554;7.966;2023-02-19T02:19:51;23.77;;;12.17;;
15946;SDS011;8072;52.554;7.966;2023-02-19T02:35:47;30.83;;;14.73;;
15946;SDS011;8072;52.554;7.966;2023-02-19T02:38:21;27.60;;;14.10;;
15946;SDS011;8072;52.554;7.966;2023-02-19T02:40:50;30.97;;;14.83;;
15946;SDS011;8072;52.554;7.966;2023-02-19T02:43:17;36.93;;;16.20;;
15946;SDS011;8072;52.554;7.966;2023-02-19T02:45:43;32.07;;;15.13;;
15946;SDS011;8072;52.554;7.966;2023-02-19T02:48:14;28.47;;;15.33;;
15946;SDS011;8072;52.554;7.966;2023-02-19T02:53:45;33.27;;;15.80;;
15946;SDS011;8072;52.554;7.966;2023-02-19T02:56:34;30.83;;;15.03;;
15946;SDS011;8072;52.554;7.966;2023-02-19T02:59:01;32.43;;;15.07;;
15946;SDS011;8072;52.554;7.966;2023-02-19T03:10:19;32.70;;;14.17;;
15946;SDS011;8072;52.554;7.966;2023-02-19T03:12:52;28.83;;;13.93;;
15946;SDS011;8072;52.554;7.966;2023-02-19T03:15:41;29.07;;;13.50;;
15946;SDS011;8072;52.554;7.966;2023-02-19T03:18:31;28.83;;;13.90;;
15946;SDS011;8072;52.554;7.966;2023-02-19T03:21:17;29.57;;;13.47;;
15946;SDS011;8072;52.554;7.966;2023-02-19T03:23:46;23.57;;;13.10;;
15946;SDS011;8072;52.554;7.966;2023-02-19T03:26:31;28.47;;;12.00;;
15946;SDS011;8072;52.554;7.966;2023-02-19T03:28:58;32.20;;;13.03;;
15946;SDS011;8072;52.554;7.966;2023-02-19T03:31:44;24.17;;;11.50;;
15946;SDS011;8072;52.554;7.966;2023-02-19T03:34:14;24.20;;;11.93;;
15946;SDS011;8072;52.554;7.966;2023-02-19T03:36:50;26.50;;;11.77;;
15946;SDS011;8072;52.554;7.966;2023-02-19T03:39:22;24.80;;;11.77;;
15946;SDS011;8072;52.554;7.966;2023-02-19T03:54:47;18.07;;;10.07;;
15946;SDS011;8072;52.554;7.966;2023-02-19T04:00:24;19.40;;;9.33;;
15946;SDS011;8072;52.554;7.966;2023-02-19T04:02:57;21.90;;;8.97;;
15946;SDS011;8072;52.554;7.966;2023-02-19T04:05:28;18.30;;;9.40;;
15946;SDS011;8072;52.554;7.966;2023-02-19T04:08:01;20.30;;;10.50;;
15946;SDS011;8072;52.554;7.966;2023-02-19T04:10:33;19.13;;;8.80;;
15946;SDS011;8072;52.554;7.966;2023-02-19T04:13:03;15.97;;;8.20;;
15946;SDS011;8072;52.554;7.966;2023-02-19T04:15:35;14.73;;;7.70;;
15946;SDS011;8072;52.554;7.966;2023-02-19T04:18:06;9.23;;;6.30;;
15946;SDS011;8072;52.554;7.966;2023-02-19T04:20:38;6.17;;;4.40;;
15946;SDS011;8072;52.554;7.966;2023-02-19T04:23:06;5.10;;;3.70;;
15946;SDS011;8072;52.554;7.966;2023-02-19T04:25:33;5.70;;;4.20;;
15946;SDS011;8072;52.554;7.966;2023-02-19T04:28:02;5.37;;;3.63;;
15946;SDS011;8072;52.554;7.966;2023-02-19T04:30:28;4.87;;;3.27;;
15946;SDS011;8072;52.554;7.966;2023-02-19T04:32:54;4.47;;;2.90;;
15946;SDS011;8072;52.554;7.966;2023-02-19T04:35:19;4.77;;;2.77;;
15946;SDS011;8072;52.554;7.966;2023-02-19T04:37:45;4.20;;;2.90;;
15946;SDS011;8072;52.554;7.966;2023-02-19T04:40:11;3.63;;;2.63;;
15946;SDS011;8072;52.554;7.966;2023-02-19T04:42:36;3.97;;;2.83;;
15946;SDS011;8072;52.554;7.966;2023-02-19T04:45:02;4.03;;;2.80;;
15946;SDS011;8072;52.554;7.966;2023-02-19T04:47:30;4.27;;;2.80;;
15946;SDS011;8072;52.554;7.966;2023-02-19T04:49:56;4.73;;;3.30;;
15946;SDS011;8072;52.554;7.966;2023-02-19T04:52:22;5.93;;;3.37;;
15946;SDS011;8072;52.554;7.966;2023-02-19T04:54:48;4.37;;;3.07;;
15946;SDS011;8072;52.554;7.966;2023-02-19T04:57:13;4.17;;;2.80;;
15946;SDS011;8072;52.554;7.966;2023-02-19T04:59:39;4.10;;;3.00;;
15946;SDS011;8072;52.554;7.966;2023-02-19T05:02:05;5.10;;;3.50;;
15946;SDS011;8072;52.554;7.966;2023-02-19T05:04:31;5.13;;;3.30;;
15946;SDS011;8072;52.554;7.966;2023-02-19T05:06:56;5.87;;;3.80;;
15946;SDS011;8072;52.554;7.966;2023-02-19T05:09:22;5.47;;;3.50;;
15946;SDS011;8072;52.554;7.966;2023-02-19T05:11:48;7.47;;;4.27;;
15946;SDS011;8072;52.554;7.966;2023-02-19T05:14:14;7.83;;;4.40;;
15946;SDS011;8072;52.554;7.966;2023-02-19T05:16:41;6.43;;;3.97;;
15946;SDS011;8072;52.554;7.966;2023-02-19T05:19:11;7.00;;;4.40;;
15946;SDS011;8072;52.554;7.966;2023-02-19T05:21:38;7.47;;;4.47;;
15946;SDS011;8072;52.554;7.966;2023-02-19T05:24:04;7.70;;;4.77;;
15946;SDS011;8072;52.554;7.966;2023-02-19T05:26:30;8.73;;;4.63;;
15946;SDS011;8072;52.554;7.966;2023-02-19T05:28:56;6.30;;;4.27;;
15946;SDS011;8072;52.554;7.966;2023-02-19T05:31:23;6.03;;;4.03;;
15946;SDS011;8072;52.554;7.966;2023-02-19T05:33:49;7.67;;;4.70;;
15946;SDS011;8072;52.554;7.966;2023-02-19T05:36:18;6.13;;;3.77;;
15946;SDS011;8072;52.554;7.966;2023-02-19T05:38:45;5.77;;;3.50;;
15946;SDS011;8072;52.554;7.966;2023-02-19T05:41:15;5.57;;;3.10;;
15946;SDS011;8072;52.554;7.966;2023-02-19T05:43:44;5.40;;;3.60;;
15946;SDS011;8072;52.554;7.966;2023-02-19T05:46:11;4.73;;;3.13;;
15946;SDS011;8072;52.554;7.966;2023-02-19T05:48:39;5.27;;;3.20;;
15946;SDS011;8072;52.554;7.966;2023-02-19T05:51:09;6.70;;;3.63;;
15946;SDS011;8072;52.554;7.966;2023-02-19T05:53:36;5.27;;;3.53;;
15946;SDS011;8072;52.554;7.966;2023-02-19T05:56:02;6.97;;;4.07;;
15946;SDS011;8072;52.554;7.966;2023-02-19T05:58:28;7.70;;;4.70;;
15946;SDS011;8072;52.554;7.966;2023-02-19T06:00:54;7.80;;;4.50;;
15946;SDS011;8072;52.554;7.966;2023-02-19T06:03:20;7.87;;;4.77;;
15946;SDS011;8072;52.554;7.966;2023-02-19T06:05:46;8.70;;;5.30;;
15946;SDS011;8072;52.554;7.966;2023-02-19T06:08:13;7.90;;;5.10;;
15946;SDS011;8072;52.554;7.966;2023-02-19T06:10:40;7.53;;;4.83;;
15946;SDS011;8072;52.554;7.966;2023-02-19T06:13:07;8.60;;;4.67;;
15946;SDS011;8072;52.554;7.966;2023-02-19T06:15:33;7.97;;;4.87;;
15946;SDS011;8072;52.554;7.966;2023-02-19T06:17:59;7.80;;;4.67;;
15946;SDS011;8072;52.554;7.966;2023-02-19T06:20:25;7.47;;;4.70;;
15946;SDS011;8072;52.554;7.966;2023-02-19T06:22:51;7.53;;;4.40;;
15946;SDS011;8072;52.554;7.966;2023-02-19T06:25:17;8.23;;;4.00;;
15946;SDS011;8072;52.554;7.966;2023-02-19T06:27:44;6.83;;;3.70;;
15946;SDS011;8072;52.554;7.966;2023-02-19T06:30:10;9.63;;;4.83;;
15946;SDS011;8072;52.554;7.966;2023-02-19T06:32:36;6.40;;;4.17;;
15946;SDS011;8072;52.554;7.966;2023-02-19T06:35:02;6.70;;;3.60;;
15946;SDS011;8072;52.554;7.966;2023-02-19T06:37:28;7.60;;;3.80;;
15946;SDS011;8072;52.554;7.966;2023-02-19T06:39:54;5.97;;;3.13;;
15946;SDS011;8072;52.554;7.966;2023-02-19T06:42:20;5.53;;;3.40;;
15946;SDS011;8072;52.554;7.966;2023-02-19T06:44:46;6.47;;;3.33;;
15946;SDS011;8072;52.554;7.966;2023-02-19T06:47:11;4.97;;;3.20;;
15946;SDS011;8072;52.554;7.966;2023-02-19T06:49:38;3.50;;;2.50;;
15946;SDS011;8072;52.554;7.966;2023-02-19T06:52:04;5.93;;;3.10;;
15946;SDS011;8072;52.554;7.966;2023-02-19T06:54:30;4.83;;;2.77;;
15946;SDS011;8072;52.554;7.966;2023-02-19T06:56:57;4.67;;;3.00;;
15946;SDS011;8072;52.554;7.966;2023-02-19T06:59:24;5.20;;;3.03;;
15946;SDS011;8072;52.554;7.966;2023-02-19T07:01:50;4.93;;;3.03;;
15946;SDS011;8072;52.554;7.966;2023-02-19T07:04:16;5.33;;;3.37;;
15946;SDS011;8072;52.554;7.966;2023-02-19T07:06:42;6.50;;;3.80;;
15946;SDS011;8072;52.554;7.966;2023-02-19T07:09:08;6.03;;;3.73;;
15946;SDS011;8072;52.554;7.966;2023-02-19T07:11:35;6.03;;;4.20;;
15946;SDS011;8072;52.554;7.966;2023-02-19T07:14:03;7.40;;;4.17;;
15946;SDS011;8072;52.554;7.966;2023-02-19T07:16:31;6.53;;;4.33;;
15946;SDS011;8072;52.554;7.966;2023-02-19T07:18:58;7.17;;;3.73;;
15946;SDS011;8072;52.554;7.966;2023-02-19T07:21:24;5.43;;;3.27;;
15946;SDS011;8072;52.554;7.966;2023-02-19T07:23:51;6.27;;;3.60;;
15946;SDS011;8072;52.554;7.966;2023-02-19T07:26:17;5.97;;;2.67;;
15946;SDS011;8072;52.554;7.966;2023-02-19T07:28:45;8.03;;;3.90;;
15946;SDS011;8072;52.554;7.966;2023-02-19T07:31:12;6.80;;;3.70;;
15946;SDS011;8072;52.554;7.966;2023-02-19T07:33:41;5.13;;;3.00;;
15946;SDS011;8072;52.554;7.966;2023-02-19T07:36:08;4.53;;;2.90;;
15946;SDS011;8072;52.554;7.966;2023-02-19T07:38:34;4.27;;;2.60;;
15946;SDS011;8072;52.554;7.966;2023-02-19T07:41:00;3.87;;;2.70;;
15946;SDS011;8072;52.554;7.966;2023-02-19T07:43:29;5.33;;;3.33;;
15946;SDS011;8072;52.554;7.966;2023-02-19T07:46:04;7.27;;;3.97;;
15946;SDS011;8072;52.554;7.966;2023-02-19T07:48:33;7.67;;;4.50;;
15946;SDS011;8072;52.554;7.966;2023-02-19T07:51:00;8.20;;;4.90;;
15946;SDS011;8072;52.554;7.966;2023-02-19T07:53:26;8.53;;;4.67;;
15946;SDS011;8072;52.554;7.966;2023-02-19T07:55:53;11.27;;;5.50;;
15946;SDS011;8072;52.554;7.966;2023-02-19T07:58:22;10.63;;;5.97;;
15946;SDS011;8072;52.554;7.966;2023-02-19T08:00:48;8.70;;;5.20;;
15946;SDS011;8072;52.554;7.966;2023-02-19T08:03:14;11.83;;;5.93;;
15946;SDS011;8072;52.554;7.966;2023-02-19T08:05:40;13.10;;;5.57;;
15946;SDS011;8072;52.554;7.966;2023-02-19T08:08:08;10.80;;;5.57;;
15946;SDS011;8072;52.554;7.966;2023-02-19T08:10:35;9.70;;;5.53;;
15946;SDS011;8072;52.554;7.966;2023-02-19T08:13:20;11.17;;;5.97;;
15946;SDS011;8072;52.554;7.966;2023-02-19T08:16:11;12.30;;;5.87;;
15946;SDS011;8072;52.554;7.966;2023-02-19T08:18:37;9.23;;;5.07;;
15946;SDS011;8072;52.554;7.966;2023-02-19T08:21:03;10.53;;;5.83;;
15946;SDS011;8072;52.554;7.966;2023-02-19T08:23:29;9.90;;;5.30;;
15946;SDS011;8072;52.554;7.966;2023-02-19T08:25:58;10.63;;;5.17;;
15946;SDS011;8072;52.554;7.966;2023-02-19T08:28:25;7.90;;;4.47;;
15946;SDS011;8072;52.554;7.966;2023-02-19T08:30:51;8.73;;;4.00;;
15946;SDS011;8072;52.554;7.966;2023-02-19T08:33:18;8.90;;;5.00;;
15946;SDS011;8072;52.554;7.966;2023-02-19T08:35:45;9.13;;;4.90;;
15946;SDS011;8072;52.554;7.966;2023-02-19T08:38:12;12.87;;;5.40;;
15946;SDS011;8072;52.554;7.966;2023-02-19T08:40:40;7.83;;;5.03;;
15946;SDS011;8072;52.554;7.966;2023-02-19T08:43:07;8.80;;;4.67;;
15946;SDS011;8072;52.554;7.966;2023-02-19T08:45:38;9.53;;;4.97;;
15946;SDS011;8072;52.554;7.966;2023-02-19T08:48:07;7.73;;;3.90;;
15946;SDS011;8072;52.554;7.966;2023-02-19T08:50:33;7.67;;;4.20;;
15946;SDS011;8072;52.554;7.966;2023-02-19T08:53:00;6.70;;;4.33;;
15946;SDS011;8072;52.554;7.966;2023-02-19T08:55:27;8.17;;;4.80;;
15946;SDS011;8072;52.554;7.966;2023-02-19T08:57:53;9.27;;;4.90;;
15946;SDS011;8072;52.554;7.966;2023-02-19T09:00:19;7.93;;;4.73;;
15946;SDS011;8072;52.554;7.966;2023-02-19T09:02:45;8.10;;;4.53;;
15946;SDS011;8072;52.554;7.966;2023-02-19T09:05:12;6.17;;;4.07;;
15946;SDS011;8072;52.554;7.966;2023-02-19T09:07:38;7.80;;;4.53;;
15946;SDS011;8072;52.554;7.966;2023-02-19T09:10:04;5.60;;;4.10;;
15946;SDS011;8072;52.554;7.966;2023-02-19T09:12:30;5.43;;;3.60;;
15946;SDS011;8072;52.554;7.966;2023-02-19T09:14:57;6.90;;;3.63;;
15946;SDS011;8072;52.554;7.966;2023-02-19T09:17:24;7.97;;;3.83;;
15946;SDS011;8072;52.554;7.966;2023-02-19T09:19:50;7.87;;;4.20;;
15946;SDS011;8072;52.554;7.966;2023-02-19T09:22:16;9.57;;;5.17;;
15946;SDS011;8072;52.554;7.966;2023-02-19T09:24:42;9.73;;;4.77;;
15946;SDS011;8072;52.554;7.966;2023-02-19T09:27:08;6.03;;;4.23;;
15946;SDS011;8072;52.554;7.966;2023-02-19T09:29:38;7.20;;;4.40;;
15946;SDS011;8072;52.554;7.966;2023-02-19T09:32:04;6.60;;;4.13;;
15946;SDS011;8072;52.554;7.966;2023-02-19T09:34:30;8.33;;;6.03;;
15946;SDS011;8072;52.554;7.966;2023-02-19T09:36:55;10.83;;;6.67;;
15946;SDS011;8072;52.554;7.966;2023-02-19T09:39:21;9.03;;;4.70;;
15946;SDS011;8072;52.554;7.966;2023-02-19T09:42:21;6.77;;;4.80;;
15946;SDS011;8072;52.554;7.966;2023-02-19T09:44:41;9.83;;;5.33;;
15946;SDS011;8072;52.554;7.966;2023-02-19T09:47:14;9.17;;;4.93;;
15946;SDS011;8072;52.554;7.966;2023-02-19T09:49:59;8.00;;;5.17;;
15946;SDS011;8072;52.554;7.966;2023-02-19T09:52:50;7.43;;;4.40;;
15946;SDS011;8072;52.554;7.966;2023-02-19T09:57:57;6.90;;;4.27;;
15946;SDS011;8072;52.554;7.966;2023-02-19T10:00:26;8.13;;;4.60;;
15946;SDS011;8072;52.554;7.966;2023-02-19T10:03:11;5.13;;;3.40;;
15946;SDS011;8072;52.554;7.966;2023-02-19T10:05:44;3.53;;;3.23;;
15946;SDS011;8072;52.554;7.966;2023-02-19T10:08:11;4.53;;;2.97;;
15946;SDS011;8072;52.554;7.966;2023-02-19T10:10:43;4.47;;;3.30;;
15946;SDS011;8072;52.554;7.966;2023-02-19T10:13:26;5.27;;;3.37;;
15946;SDS011;8072;52.554;7.966;2023-02-19T10:16:02;4.63;;;4.03;;
15946;SDS011;8072;52.554;7.966;2023-02-19T10:18:33;3.80;;;3.20;;
15946;SDS011;8072;52.554;7.966;2023-02-19T10:21:04;5.00;;;3.37;;
15946;SDS011;8072;52.554;7.966;2023-02-19T10:23:30;5.07;;;3.10;;
15946;SDS011;8072;52.554;7.966;2023-02-19T10:25:56;5.30;;;3.23;;
15946;SDS011;8072;52.554;7.966;2023-02-19T10:28:26;4.30;;;2.83;;
15946;SDS011;8072;52.554;7.966;2023-02-19T10:30:57;4.77;;;3.00;;
15946;SDS011;8072;52.554;7.966;2023-02-19T10:33:24;2.97;;;2.47;;
15946;SDS011;8072;52.554;7.966;2023-02-19T10:36:05;4.57;;;2.50;;
15946;SDS011;8072;52.554;7.966;2023-02-19T10:38:43;3.30;;;2.10;;
15946;SDS011;8072;52.554;7.966;2023-02-19T10:41:12;3.03;;;2.00;;
15946;SDS011;8072;52.554;7.966;2023-02-19T10:43:42;3.17;;;2.17;;
15946;SDS011;8072;52.554;7.966;2023-02-19T10:48:50;4.67;;;2.03;;
15946;SDS011;8072;52.554;7.966;2023-02-19T10:51:34;4.27;;;2.30;;
15946;SDS011;8072;52.554;7.966;2023-02-19T10:54:08;4.17;;;2.23;;
15946;SDS011;8072;52.554;7.966;2023-02-19T10:56:42;5.83;;;2.80;;
15946;SDS011;8072;52.554;7.966;2023-02-19T11:04:41;3.80;;;1.73;;
15946;SDS011;8072;52.554;7.966;2023-02-19T11:07:25;2.20;;;1.70;;
15946;SDS011;8072;52.554;7.966;2023-02-19T11:09:51;2.57;;;2.00;;
15946;SDS011;8072;52.554;7.966;2023-02-19T11:12:24;4.33;;;1.83;;
15946;SDS011;8072;52.554;7.966;2023-02-19T11:14:52;3.20;;;2.10;;
15946;SDS011;8072;52.554;7.966;2023-02-19T11:17:28;3.70;;;2.07;;
15946;SDS011;8072;52.554;7.966;2023-02-19T11:19:58;4.63;;;2.33;;
15946;SDS011;8072;52.554;7.966;2023-02-19T11:22:30;2.73;;;2.20;;
15946;SDS011;8072;52.554;7.966;2023-02-19T11:27:30;2.83;;;1.97;;
15946;SDS011;8072;52.554;7.966;2023-02-19T11:30:02;3.67;;;1.60;;
15946;SDS011;8072;52.554;7.966;2023-02-19T11:32:48;3.13;;;1.97;;
15946;SDS011;8072;52.554;7.966;2023-02-19T11:35:15;2.73;;;1.73;;
15946;SDS011;8072;52.554;7.966;2023-02-19T11:40:18;2.53;;;1.90;;
15946;SDS011;8072;52.554;7.966;2023-02-19T11:45:48;2.47;;;1.70;;
15946;SDS011;8072;52.554;7.966;2023-02-19T11:48:25;2.60;;;1.90;;
15946;SDS011;8072;52.554;7.966;2023-02-19T11:54:10;3.47;;;1.70;;
15946;SDS011;8072;52.554;7.966;2023-02-19T11:57:02;3.87;;;1.50;;
15946;SDS011;8072;52.554;7.966;2023-02-19T12:05:16;2.10;;;1.50;;
15946;SDS011;8072;52.554;7.966;2023-02-19T12:16:38;2.17;;;1.57;;
15946;SDS011;8072;52.554;7.966;2023-02-19T12:33:36;3.30;;;1.53;;
15946;SDS011;8072;52.554;7.966;2023-02-19T12:44:51;3.40;;;1.70;;
15946;SDS011;8072;52.554;7.966;2023-02-19T12:47:27;1.77;;;1.67;;
15946;SDS011;8072;52.554;7.966;2023-02-19T12:52:38;1.67;;;1.47;;
15946;SDS011;8072;52.554;7.966;2023-02-19T12:55:20;2.37;;;1.63;;
15946;SDS011;8072;52.554;7.966;2023-02-19T12:57:49;2.30;;;1.53;;
15946;SDS011;8072;52.554;7.966;2023-02-19T13:03:05;2.70;;;1.60;;
15946;SDS011;8072;52.554;7.966;2023-02-19T13:05:44;1.83;;;1.40;;
15946;SDS011;8072;52.554;7.966;2023-02-19T13:10:58;2.17;;;1.37;;
15946;SDS011;8072;52.554;7.966;2023-02-19T13:13:51;2.27;;;1.30;;
15946;SDS011;8072;52.554;7.966;2023-02-19T13:16:31;2.37;;;1.23;;
15946;SDS011;8072;52.554;7.966;2023-02-19T13:19:02;1.63;;;1.27;;
15946;SDS011;8072;52.554;7.966;2023-02-19T13:21:32;2.70;;;1.50;;
15946;SDS011;8072;52.554;7.966;2023-02-19T13:24:23;2.93;;;1.30;;
15946;SDS011;8072;52.554;7.966;2023-02-19T13:37:24;2.03;;;1.30;;
15946;SDS011;8072;52.554;7.966;2023-02-19T13:39:51;2.90;;;1.40;;
15946;SDS011;8072;52.554;7.966;2023-02-19T13:42:40;1.77;;;1.27;;
15946;SDS011;8072;52.554;7.966;2023-02-19T13:45:05;3.47;;;1.30;;
15946;SDS011;8072;52.554;7.966;2023-02-19T13:50:16;4.43;;;1.80;;
15946;SDS011;8072;52.554;7.966;2023-02-19T13:52:44;4.87;;;2.20;;
15946;SDS011;8072;52.554;7.966;2023-02-19T14:01:05;2.07;;;1.30;;
15946;SDS011;8072;52.554;7.966;2023-02-19T14:06:08;1.60;;;1.20;;
15946;SDS011;8072;52.554;7.966;2023-02-19T14:08:53;1.97;;;1.50;;
15946;SDS011;8072;52.554;7.966;2023-02-19T14:22:58;3.57;;;1.70;;
15946;SDS011;8072;52.554;7.966;2023-02-19T14:30:29;1.80;;;1.40;;
15946;SDS011;8072;52.554;7.966;2023-02-19T14:32:57;1.50;;;1.40;;
15946;SDS011;8072;52.554;7.966;2023-02-19T14:35:28;2.23;;;1.40;;
15946;SDS011;8072;52.554;7.966;2023-02-19T14:37:59;1.93;;;1.70;;
15946;SDS011;8072;52.554;7.966;2023-02-19T14:40:27;3.03;;;1.30;;
15946;SDS011;8072;52.554;7.966;2023-02-19T14:43:07;2.80;;;1.50;;
15946;SDS011;8072;52.554;7.966;2023-02-19T14:45:40;1.87;;;1.40;;
15946;SDS011;8072;52.554;7.966;2023-02-19T14:48:29;1.97;;;1.40;;
15946;SDS011;8072;52.554;7.966;2023-02-19T14:51:10;2.73;;;1.67;;
15946;SDS011;8072;52.554;7.966;2023-02-19T14:53:45;2.00;;;1.20;;
15946;SDS011;8072;52.554;7.966;2023-02-19T14:56:22;1.47;;;1.30;;
15946;SDS011;8072;52.554;7.966;2023-02-19T15:01:38;1.37;;;1.27;;
15946;SDS011;8072;52.554;7.966;2023-02-19T15:04:05;2.93;;;1.50;;
15946;SDS011;8072;52.554;7.966;2023-02-19T15:06:32;1.60;;;1.40;;
15946;SDS011;8072;52.554;7.966;2023-02-19T15:09:02;2.13;;;1.40;;
15946;SDS011;8072;52.554;7.966;2023-02-19T15:11:30;2.60;;;1.47;;
15946;SDS011;8072;52.554;7.966;2023-02-19T15:13:58;2.10;;;1.43;;
15946;SDS011;8072;52.554;7.966;2023-02-19T15:16:30;2.37;;;1.77;;
15946;SDS011;8072;52.554;7.966;2023-02-19T15:18:58;3.23;;;1.40;;
15946;SDS011;8072;52.554;7.966;2023-02-19T15:21:29;1.87;;;1.53;;
15946;SDS011;8072;52.554;7.966;2023-02-19T15:23:59;1.80;;;1.40;;
15946;SDS011;8072;52.554;7.966;2023-02-19T15:26:31;2.67;;;1.47;;
15946;SDS011;8072;52.554;7.966;2023-02-19T15:29:01;2.90;;;1.50;;
15946;SDS011;8072;52.554;7.966;2023-02-19T15:31:33;2.60;;;1.43;;
15946;SDS011;8072;52.554;7.966;2023-02-19T15:33:59;2.13;;;1.40;;
15946;SDS011;8072;52.554;7.966;2023-02-19T15:36:26;2.90;;;1.27;;
15946;SDS011;8072;52.554;7.966;2023-02-19T15:38:55;3.93;;;1.90;;
15946;SDS011;8072;52.554;7.966;2023-02-19T15:41:25;3.47;;;1.60;;
15946;SDS011;8072;52.554;7.966;2023-02-19T15:43:55;3.27;;;1.40;;
15946;SDS011;8072;52.554;7.966;2023-02-19T15:46:42;3.97;;;1.50;;
15946;SDS011;8072;52.554;7.966;2023-02-19T15:49:20;2.57;;;1.57;;
15946;SDS011;8072;52.554;7.966;2023-02-19T16:01:13;2.20;;;1.50;;
15946;SDS011;8072;52.554;7.966;2023-02-19T16:03:51;2.13;;;1.67;;
15946;SDS011;8072;52.554;7.966;2023-02-19T16:06:18;4.60;;;1.70;;
15946;SDS011;8072;52.554;7.966;2023-02-19T16:08:57;4.63;;;1.57;;
15946;SDS011;8072;52.554;7.966;2023-02-19T16:11:35;1.93;;;1.40;;
15946;SDS011;8072;52.554;7.966;2023-02-19T16:14:33;2.37;;;1.70;;
15946;SDS011;8072;52.554;7.966;2023-02-19T16:17:10;2.27;;;1.77;;
15946;SDS011;8072;52.554;7.966;2023-02-19T16:22:15;5.50;;;2.00;;
15946;SDS011;8072;52.554;7.966;2023-02-19T16:24:56;4.00;;;2.00;;
15946;SDS011;8072;52.554;7.966;2023-02-19T16:27:31;7.20;;;2.63;;
15946;SDS011;8072;52.554;7.966;2023-02-19T16:30:48;4.03;;;2.70;;
15946;SDS011;8072;52.554;7.966;2023-02-19T16:35:54;1.97;;;1.83;;
15946;SDS011;8072;52.554;7.966;2023-02-19T16:38:20;4.43;;;1.70;;
15946;SDS011;8072;52.554;7.966;2023-02-19T16:43:25;3.27;;;1.87;;
15946;SDS011;8072;52.554;7.966;2023-02-19T16:45:54;1.90;;;1.63;;
15946;SDS011;8072;52.554;7.966;2023-02-19T16:48:21;2.50;;;1.80;;
15946;SDS011;8072;52.554;7.966;2023-02-19T16:50:47;1.90;;;1.60;;
15946;SDS011;8072;52.554;7.966;2023-02-19T16:53:20;2.60;;;1.80;;
15946;SDS011;8072;52.554;7.966;2023-02-19T16:55:49;4.80;;;2.20;;
15946;SDS011;8072;52.554;7.966;2023-02-19T16:58:15;4.03;;;2.30;;
15946;SDS011;8072;52.554;7.966;2023-02-19T17:00:41;2.30;;;2.10;;
15946;SDS011;8072;52.554;7.966;2023-02-19T17:03:08;2.47;;;1.90;;
15946;SDS011;8072;52.554;7.966;2023-02-19T17:05:38;3.73;;;1.67;;
15946;SDS011;8072;52.554;7.966;2023-02-19T17:08:11;3.00;;;1.90;;
15946;SDS011;8072;52.554;7.966;2023-02-19T17:10:49;3.00;;;1.70;;
15946;SDS011;8072;52.554;7.966;2023-02-19T17:13:15;4.47;;;2.37;;
15946;SDS011;8072;52.554;7.966;2023-02-19T17:15:40;11.17;;;2.90;;
15946;SDS011;8072;52.554;7.966;2023-02-19T17:18:07;4.80;;;2.10;;
15946;SDS011;8072;52.554;7.966;2023-02-19T17:20:34;4.93;;;2.10;;
15946;SDS011;8072;52.554;7.966;2023-02-19T17:23:00;4.50;;;1.97;;
15946;SDS011;8072;52.554;7.966;2023-02-19T17:25:26;3.90;;;1.93;;
15946;SDS011;8072;52.554;7.966;2023-02-19T17:27:52;4.10;;;2.30;;
15946;SDS011;8072;52.554;7.966;2023-02-19T17:30:19;4.20;;;2.10;;
15946;SDS011;8072;52.554;7.966;2023-02-19T17:32:52;4.43;;;2.13;;
15946;SDS011;8072;52.554;7.966;2023-02-19T17:35:18;6.33;;;2.50;;
15946;SDS011;8072;52.554;7.966;2023-02-19T17:37:43;4.30;;;2.30;;
15946;SDS011;8072;52.554;7.966;2023-02-19T17:42:47;5.43;;;2.40;;
15946;SDS011;8072;52.554;7.966;2023-02-19T17:45:13;4.20;;;2.93;;
15946;SDS011;8072;52.554;7.966;2023-02-19T17:47:39;4.50;;;2.60;;
15946;SDS011;8072;52.554;7.966;2023-02-19T17:50:04;3.80;;;2.60;;
15946;SDS011;8072;52.554;7.966;2023-02-19T17:52:31;3.90;;;2.60;;
15946;SDS011;8072;52.554;7.966;2023-02-19T17:54:57;3.30;;;2.30;;
15946;SDS011;8072;52.554;7.966;2023-02-19T17:57:22;5.40;;;2.60;;
15946;SDS011;8072;52.554;7.966;2023-02-19T17:59:49;5.30;;;3.10;;
15946;SDS011;8072;52.554;7.966;2023-02-19T18:02:15;4.17;;;3.10;;
15946;SDS011;8072;52.554;7.966;2023-02-19T18:04:41;7.50;;;3.00;;